Time;durP1;ratioP1;P1;durP2;ratioP2;P2;SDS_P1;SDS_P2;PMS_P1;PMS_P2;Temp;Humidity;BMP_temperature;BMP_pressure;BME280_temperature;BME280_humidity;BME280_pressure;Samples;Min_cycle;Max_cycle;Signal;HPM_P1;HPM_P2
2024/01/21 00:00:50;;;;;;;15.77;8.50;;;;;;;;;;5091017;28;20461;-54
2024/01/21 00:03:16;;;;;;;15.25;8.60;;;;;;;;;;5084581;28;20406;-56
2024/01/21 00:05:42;;;;;;;17.10;9.10;;;;;;;;;;5086730;28;20409;-54
2024/01/21 00:08:08;;;;;;;18.17;8.60;;;;;;;;;;5090948;28;20390;-56
2024/01/21 00:10:34;;;;;;;14.75;8.48;;;;;;;;;;5089722;28;20417;-52
2024/01/21 00:13:00;;;;;;;17.52;8.93;;;;;;;;;;5089388;28;20386;-53
2024/01/21 00:15:26;;;;;;;15.27;8.40;;;;;;;;;;5082047;28;20869;-51
2024/01/21 00:17:52;;;;;;;17.15;9.15;;;;;;;;;;5083236;28;20400;-51
2024/01/21 00:20:18;;;;;;;16.00;8.10;;;;;;;;;;5090960;28;20891;-51
2024/01/21 00:22:44;;;;;;;18.33;8.48;;;;;;;;;;5087652;28;21043;-53
2024/01/21 00:25:10;;;;;;;15.43;8.32;;;;;;;;;;5086062;28;20375;-54
2024/01/21 00:27:36;;;;;;;16.05;8.75;;;;;;;;;;5087968;28;20394;-56
2024/01/21 00:30:03;;;;;;;14.60;8.80;;;;;;;;;;5073162;28;20984;-55
2024/01/21 00:32:29;;;;;;;19.58;8.98;;;;;;;;;;5088778;28;20939;-54
2024/01/21 00:34:55;;;;;;;17.00;8.82;;;;;;;;;;5089161;28;20374;-54
2024/01/21 00:37:21;;;;;;;16.33;8.85;;;;;;;;;;5088599;28;20393;-55
2024/01/21 00:39:47;;;;;;;16.73;8.35;;;;;;;;;;5089510;28;20370;-55
2024/01/21 00:42:13;;;;;;;15.98;8.75;;;;;;;;;;5078801;28;20405;-56
2024/01/21 00:44:39;;;;;;;14.85;7.85;;;;;;;;;;5089309;28;20883;-54
2024/01/21 00:47:05;;;;;;;17.55;8.93;;;;;;;;;;5089064;28;20383;-55
2024/01/21 00:49:31;;;;;;;15.02;8.10;;;;;;;;;;5083035;28;21203;-52
2024/01/21 00:51:58;;;;;;;16.35;8.35;;;;;;;;;;5090424;28;20909;-55
2024/01/21 00:54:24;;;;;;;15.13;7.93;;;;;;;;;;5076788;28;20389;-55
2024/01/21 00:56:50;;;;;;;15.98;8.30;;;;;;;;;;5086411;28;20888;-52
2024/01/21 00:59:16;;;;;;;16.75;9.05;;;;;;;;;;5089958;28;20725;-56
2024/01/21 01:01:42;;;;;;;15.73;8.40;;;;;;;;;;5089542;28;21076;-55
2024/01/21 01:04:08;;;;;;;16.30;8.60;;;;;;;;;;5086102;28;20725;-53
2024/01/21 01:06:34;;;;;;;16.55;8.88;;;;;;;;;;5090368;28;20382;-55
2024/01/21 01:09:00;;;;;;;18.58;8.70;;;;;;;;;;5088319;28;20400;-55
2024/01/21 01:11:27;;;;;;;17.15;8.85;;;;;;;;;;5078385;28;20816;-54
2024/01/21 01:13:53;;;;;;;15.25;7.97;;;;;;;;;;5084963;28;20402;-55
2024/01/21 01:16:19;;;;;;;17.27;8.95;;;;;;;;;;5089937;28;20392;-55
2024/01/21 01:18:45;;;;;;;14.60;8.00;;;;;;;;;;5089983;28;20465;-55
2024/01/21 01:21:11;;;;;;;17.17;8.90;;;;;;;;;;5088870;28;20366;-55
2024/01/21 01:23:37;;;;;;;18.42;9.32;;;;;;;;;;5080085;28;20378;-55
2024/01/21 01:26:03;;;;;;;18.55;9.30;;;;;;;;;;5089174;28;20463;-52
2024/01/21 01:28:31;;;;;;;18.98;9.18;;;;;;;;;;5088065;28;20414;-55
2024/01/21 01:30:57;;;;;;;17.30;9.13;;;;;;;;;;5076642;28;20477;-53
2024/01/21 01:33:24;;;;;;;18.10;9.23;;;;;;;;;;5087958;28;20366;-55
2024/01/21 01:35:50;;;;;;;17.55;8.77;;;;;;;;;;5084283;28;20396;-52
2024/01/21 01:38:16;;;;;;;18.00;8.45;;;;;;;;;;5081448;28;21053;-55
2024/01/21 01:40:42;;;;;;;18.02;8.98;;;;;;;;;;5085433;28;20402;-52
2024/01/21 01:43:09;;;;;;;16.75;8.82;;;;;;;;;;5086539;28;20401;-51
2024/01/21 01:45:35;;;;;;;17.33;8.80;;;;;;;;;;5088208;28;20902;-54
2024/01/21 01:48:02;;;;;;;13.45;7.97;;;;;;;;;;5089155;28;20902;-50
2024/01/21 01:50:29;;;;;;;15.43;8.23;;;;;;;;;;5088384;28;20772;-52
2024/01/21 01:52:55;;;;;;;17.30;8.80;;;;;;;;;;5083347;28;20402;-54
2024/01/21 01:55:21;;;;;;;15.20;8.75;;;;;;;;;;5086129;28;20401;-51
2024/01/21 01:57:48;;;;;;;17.50;9.07;;;;;;;;;;5078648;28;20388;-51
2024/01/21 02:00:14;;;;;;;18.90;9.13;;;;;;;;;;5093726;28;20832;-49
2024/01/21 02:02:41;;;;;;;15.80;8.80;;;;;;;;;;5093502;28;20382;-50
2024/01/21 02:05:07;;;;;;;19.50;10.18;;;;;;;;;;5092344;28;20716;-52
2024/01/21 02:07:33;;;;;;;17.65;9.73;;;;;;;;;;5091658;28;20481;-51
2024/01/21 02:10:01;;;;;;;22.33;10.48;;;;;;;;;;5084172;28;20882;-52
2024/01/21 02:12:27;;;;;;;20.58;10.25;;;;;;;;;;5080143;28;20399;-52
2024/01/21 02:14:53;;;;;;;18.73;9.98;;;;;;;;;;5093711;28;20414;-53
2024/01/21 02:17:19;;;;;;;20.15;10.45;;;;;;;;;;5091926;28;20421;-53
2024/01/21 02:19:45;;;;;;;17.90;9.27;;;;;;;;;;5078670;28;20378;-52
2024/01/21 02:22:12;;;;;;;20.05;10.10;;;;;;;;;;5091945;28;20401;-52
2024/01/21 02:24:38;;;;;;;18.67;10.00;;;;;;;;;;5091991;28;20403;-54
2024/01/21 02:27:04;;;;;;;20.25;10.00;;;;;;;;;;5091092;28;20376;-54
2024/01/21 02:29:30;;;;;;;18.00;9.80;;;;;;;;;;5087433;28;20733;-51
2024/01/21 02:31:57;;;;;;;18.38;9.52;;;;;;;;;;5092350;28;20417;-53
2024/01/21 02:34:23;;;;;;;17.60;9.20;;;;;;;;;;5091168;28;20375;-52
2024/01/21 02:36:49;;;;;;;27.45;13.95;;;;;;;;;;5092301;28;20398;-55
2024/01/21 02:39:15;;;;;;;20.33;10.10;;;;;;;;;;5091855;28;20405;-55
2024/01/21 02:41:41;;;;;;;18.67;9.40;;;;;;;;;;5090309;28;20473;-54
2024/01/21 02:44:07;;;;;;;18.38;9.73;;;;;;;;;;5089744;28;20412;-53
2024/01/21 02:46:33;;;;;;;16.08;9.05;;;;;;;;;;5087960;28;20504;-55
2024/01/21 02:48:59;;;;;;;17.90;9.20;;;;;;;;;;5089782;28;20386;-55
2024/01/21 02:51:25;;;;;;;16.08;9.13;;;;;;;;;;5090317;28;20406;-55
2024/01/21 02:53:52;;;;;;;17.02;8.88;;;;;;;;;;5085865;28;20386;-55
2024/01/21 02:56:22;;;;;;;17.73;8.97;;;;;;;;;;5090562;28;20468;-56
2024/01/21 02:58:49;;;;;;;17.38;9.73;;;;;;;;;;5090856;28;20600;-55
2024/01/21 03:01:15;;;;;;;15.90;8.50;;;;;;;;;;5081493;28;20391;-56
2024/01/21 03:03:41;;;;;;;18.20;9.38;;;;;;;;;;5090719;28;20374;-55
2024/01/21 03:06:07;;;;;;;17.58;8.65;;;;;;;;;;5073342;28;20483;-52
2024/01/21 03:08:33;;;;;;;18.25;8.70;;;;;;;;;;5072419;28;20869;-55
2024/01/21 03:10:59;;;;;;;19.63;8.80;;;;;;;;;;5080899;28;20926;-54
2024/01/21 03:13:25;;;;;;;16.52;8.85;;;;;;;;;;5085171;28;20887;-53
2024/01/21 03:15:51;;;;;;;16.35;8.27;;;;;;;;;;5083672;28;20823;-54
2024/01/21 03:18:17;;;;;;;16.73;8.40;;;;;;;;;;5091273;28;20761;-55
2024/01/21 03:20:43;;;;;;;15.63;8.57;;;;;;;;;;5080787;28;20382;-54
2024/01/21 03:23:08;;;;;;;16.15;8.35;;;;;;;;;;5091001;28;20388;-54
2024/01/21 03:25:34;;;;;;;15.82;8.30;;;;;;;;;;5084570;28;20395;-55
2024/01/21 03:28:00;;;;;;;14.70;8.40;;;;;;;;;;5088229;28;20428;-57
2024/01/21 03:30:26;;;;;;;17.30;8.98;;;;;;;;;;5090454;28;20398;-56
2024/01/21 03:32:53;;;;;;;14.38;7.97;;;;;;;;;;5090291;28;20891;-55
2024/01/21 03:35:19;;;;;;;14.87;8.60;;;;;;;;;;5090662;28;20894;-56
2024/01/21 03:37:45;;;;;;;16.23;8.88;;;;;;;;;;5090856;28;20855;-55
2024/01/21 03:40:11;;;;;;;16.70;8.73;;;;;;;;;;5089287;28;20374;-52
2024/01/21 03:42:37;;;;;;;17.55;8.57;;;;;;;;;;5080066;28;20395;-53
2024/01/21 03:45:03;;;;;;;15.63;8.20;;;;;;;;;;5079689;28;20898;-54
2024/01/21 03:47:29;;;;;;;18.20;9.18;;;;;;;;;;5089979;28;20416;-54
2024/01/21 03:49:55;;;;;;;15.43;8.63;;;;;;;;;;5090937;28;20374;-55
2024/01/21 03:52:21;;;;;;;14.77;8.35;;;;;;;;;;5089999;28;20378;-56
2024/01/21 03:54:47;;;;;;;18.65;8.80;;;;;;;;;;5084617;28;20412;-53
2024/01/21 03:57:13;;;;;;;14.20;8.10;;;;;;;;;;5090632;28;20418;-58
2024/01/21 03:59:42;;;;;;;17.05;8.85;;;;;;;;;;5081830;28;20416;-56
2024/01/21 04:02:08;;;;;;;15.70;7.82;;;;;;;;;;5090331;28;20848;-57
2024/01/21 04:04:34;;;;;;;14.70;7.88;;;;;;;;;;5086881;28;20409;-59
2024/01/21 04:07:00;;;;;;;17.38;9.55;;;;;;;;;;5075316;28;20368;-58
2024/01/21 04:09:26;;;;;;;17.63;7.97;;;;;;;;;;5085969;28;20439;-55
2024/01/21 04:11:52;;;;;;;14.18;7.80;;;;;;;;;;5090210;28;20410;-56
2024/01/21 04:14:18;;;;;;;15.65;7.85;;;;;;;;;;5090628;28;21230;-58
2024/01/21 04:16:44;;;;;;;14.88;7.70;;;;;;;;;;5090821;28;20398;-56
2024/01/21 04:19:10;;;;;;;13.57;8.23;;;;;;;;;;5085764;28;20901;-58
2024/01/21 04:21:38;;;;;;;13.15;7.45;;;;;;;;;;5079811;28;20403;-59
2024/01/21 04:24:05;;;;;;;13.57;7.30;;;;;;;;;;5075882;28;20388;-58
2024/01/21 04:26:31;;;;;;;14.48;7.55;;;;;;;;;;5085147;28;20385;-58
2024/01/21 04:28:57;;;;;;;14.95;7.70;;;;;;;;;;5089869;28;20386;-58
2024/01/21 04:31:23;;;;;;;13.35;6.93;;;;;;;;;;5089942;28;20471;-58
2024/01/21 04:33:49;;;;;;;15.27;7.35;;;;;;;;;;5090026;28;20397;-58
2024/01/21 04:36:18;;;;;;;15.10;7.43;;;;;;;;;;5089454;28;20488;-58
2024/01/21 04:38:45;;;;;;;11.30;6.77;;;;;;;;;;5074106;28;20773;-58
2024/01/21 04:41:14;;;;;;;14.65;7.53;;;;;;;;;;5088548;28;20374;-58
2024/01/21 04:43:40;;;;;;;11.68;6.88;;;;;;;;;;5088361;28;20731;-58
2024/01/21 04:46:06;;;;;;;13.20;7.50;;;;;;;;;;5086678;28;20532;-58
2024/01/21 04:48:33;;;;;;;11.90;6.93;;;;;;;;;;5090313;28;20453;-59
2024/01/21 04:50:59;;;;;;;12.95;7.00;;;;;;;;;;5085939;28;21012;-57
2024/01/21 04:53:24;;;;;;;13.38;7.18;;;;;;;;;;5082502;28;20391;-57
2024/01/21 04:55:50;;;;;;;12.55;7.10;;;;;;;;;;5089423;28;20790;-54
2024/01/21 04:58:16;;;;;;;13.75;7.78;;;;;;;;;;5091024;28;20755;-53
2024/01/21 05:00:42;;;;;;;11.75;6.88;;;;;;;;;;5090339;28;20430;-55
2024/01/21 05:03:08;;;;;;;11.88;6.57;;;;;;;;;;5082866;28;20441;-55
2024/01/21 05:05:35;;;;;;;12.98;7.18;;;;;;;;;;5089172;28;21210;-54
2024/01/21 05:08:01;;;;;;;10.45;6.45;;;;;;;;;;5086795;28;20420;-51
2024/01/21 05:10:27;;;;;;;12.40;6.97;;;;;;;;;;5089402;28;20410;-50
2024/01/21 05:12:53;;;;;;;14.07;6.82;;;;;;;;;;5085046;28;20402;-52
2024/01/21 05:15:19;;;;;;;12.95;6.85;;;;;;;;;;5089685;28;20425;-57
2024/01/21 05:17:45;;;;;;;12.43;6.38;;;;;;;;;;5086104;28;20397;-54
2024/01/21 05:20:11;;;;;;;11.88;7.13;;;;;;;;;;5078069;28;20793;-54
2024/01/21 05:22:37;;;;;;;9.95;6.53;;;;;;;;;;5088569;28;20406;-50
2024/01/21 05:25:03;;;;;;;12.60;7.00;;;;;;;;;;5081463;28;20382;-49
2024/01/21 05:27:32;;;;;;;11.63;6.35;;;;;;;;;;5085972;28;20473;-50
2024/01/21 05:29:58;;;;;;;12.73;6.43;;;;;;;;;;5077021;28;20406;-51
2024/01/21 05:32:24;;;;;;;12.20;6.60;;;;;;;;;;5088714;28;20767;-49
2024/01/21 05:34:50;;;;;;;12.23;7.38;;;;;;;;;;5087105;28;20749;-51
2024/01/21 05:37:16;;;;;;;11.05;6.45;;;;;;;;;;5091354;28;20402;-52
2024/01/21 05:39:42;;;;;;;12.13;6.88;;;;;;;;;;5092747;28;20484;-51
2024/01/21 05:42:08;;;;;;;11.85;6.82;;;;;;;;;;5088752;28;20536;-53
2024/01/21 05:44:34;;;;;;;13.73;6.80;;;;;;;;;;5089544;28;20874;-53
2024/01/21 05:47:00;;;;;;;11.87;6.60;;;;;;;;;;5093563;28;20398;-52
2024/01/21 05:49:27;;;;;;;10.20;6.53;;;;;;;;;;5090118;28;20401;-52
2024/01/21 05:51:53;;;;;;;12.57;6.43;;;;;;;;;;5081422;28;20487;-53
2024/01/21 05:54:19;;;;;;;15.45;8.45;;;;;;;;;;5079326;28;20471;-50
2024/01/21 05:56:46;;;;;;;13.13;7.40;;;;;;;;;;5088795;28;20398;-54
2024/01/21 05:59:16;;;;;;;13.60;7.35;;;;;;;;;;5092456;28;20921;-54
2024/01/21 06:01:42;;;;;;;13.35;7.45;;;;;;;;;;5092757;28;20429;-53
2024/01/21 06:04:08;;;;;;;13.73;7.20;;;;;;;;;;5088746;28;20374;-53
2024/01/21 06:06:34;;;;;;;12.77;7.35;;;;;;;;;;5067193;28;20410;-55
2024/01/21 06:09:00;;;;;;;14.68;7.72;;;;;;;;;;5087061;28;20397;-54
2024/01/21 06:11:26;;;;;;;15.85;7.97;;;;;;;;;;5088284;28;20432;-56
2024/01/21 06:13:52;;;;;;;13.43;7.30;;;;;;;;;;5090163;28;20409;-55
2024/01/21 06:16:18;;;;;;;14.32;7.18;;;;;;;;;;5090609;28;20752;-55
2024/01/21 06:18:44;;;;;;;13.10;7.60;;;;;;;;;;5088513;28;20414;-56
2024/01/21 06:21:10;;;;;;;14.75;7.65;;;;;;;;;;5081897;28;20412;-55
2024/01/21 06:23:36;;;;;;;11.93;7.35;;;;;;;;;;5085959;28;20416;-56
2024/01/21 06:26:02;;;;;;;13.63;7.50;;;;;;;;;;5083645;28;20538;-50
2024/01/21 06:28:29;;;;;;;15.45;7.35;;;;;;;;;;5079907;28;20470;-50
2024/01/21 06:30:55;;;;;;;13.43;7.25;;;;;;;;;;5085497;28;20441;-51
2024/01/21 06:33:21;;;;;;;13.75;7.55;;;;;;;;;;5087019;28;20409;-50
2024/01/21 06:35:47;;;;;;;14.52;7.72;;;;;;;;;;5089889;28;20409;-50
2024/01/21 06:38:13;;;;;;;11.75;7.18;;;;;;;;;;5091003;28;20471;-54
2024/01/21 06:40:39;;;;;;;12.95;7.40;;;;;;;;;;5067568;28;20406;-53
2024/01/21 06:43:05;;;;;;;13.18;7.22;;;;;;;;;;5088877;28;20402;-54
2024/01/21 06:45:31;;;;;;;13.55;7.22;;;;;;;;;;5083173;28;20437;-54
2024/01/21 06:47:57;;;;;;;13.48;7.72;;;;;;;;;;5088451;28;20430;-52
2024/01/21 06:50:23;;;;;;;16.73;8.45;;;;;;;;;;5083805;28;20413;-52
2024/01/21 06:52:49;;;;;;;13.90;8.05;;;;;;;;;;5089671;28;20767;-53
2024/01/21 06:55:15;;;;;;;14.70;8.02;;;;;;;;;;5089196;28;20447;-51
2024/01/21 06:57:41;;;;;;;15.52;8.02;;;;;;;;;;5088430;28;20390;-52
2024/01/21 07:00:07;;;;;;;14.95;8.15;;;;;;;;;;5088791;28;20467;-50
2024/01/21 07:02:33;;;;;;;14.47;8.37;;;;;;;;;;5076748;28;20407;-52
2024/01/21 07:04:59;;;;;;;16.50;8.53;;;;;;;;;;5082864;28;20390;-51
2024/01/21 07:07:25;;;;;;;15.67;7.87;;;;;;;;;;5089147;28;20406;-51
2024/01/21 07:09:51;;;;;;;14.40;8.43;;;;;;;;;;5085515;28;20958;-52
2024/01/21 07:12:17;;;;;;;15.25;7.80;;;;;;;;;;5090917;28;20385;-49
2024/01/21 07:14:43;;;;;;;14.18;7.82;;;;;;;;;;5088712;28;20394;-52
2024/01/21 07:17:10;;;;;;;16.65;8.63;;;;;;;;;;5088539;28;20426;-54
2024/01/21 07:19:36;;;;;;;13.43;7.80;;;;;;;;;;5088203;28;20748;-53
2024/01/21 07:22:03;;;;;;;14.77;8.23;;;;;;;;;;5087203;28;20597;-53
2024/01/21 07:24:28;;;;;;;17.13;8.90;;;;;;;;;;5083512;28;20401;-53
2024/01/21 07:26:54;;;;;;;14.65;7.65;;;;;;;;;;5080390;28;20472;-52
2024/01/21 07:29:20;;;;;;;13.10;7.82;;;;;;;;;;5087863;28;20455;-51
2024/01/21 07:31:46;;;;;;;14.27;7.93;;;;;;;;;;5082058;28;20410;-53
2024/01/21 07:34:13;;;;;;;14.90;8.10;;;;;;;;;;5083006;28;20464;-53
2024/01/21 07:36:39;;;;;;;13.63;6.90;;;;;;;;;;5087691;28;20406;-50
2024/01/21 07:39:05;;;;;;;12.50;7.28;;;;;;;;;;5090151;28;20374;-52
2024/01/21 07:41:32;;;;;;;14.20;7.32;;;;;;;;;;5089410;28;20859;-50
2024/01/21 07:43:59;;;;;;;14.57;8.30;;;;;;;;;;5088842;28;20382;-50
2024/01/21 07:46:24;;;;;;;13.13;8.30;;;;;;;;;;5090539;28;20408;-52
2024/01/21 07:48:50;;;;;;;15.37;8.80;;;;;;;;;;5087181;28;20410;-51
2024/01/21 07:51:18;;;;;;;11.70;7.10;;;;;;;;;;5086005;28;20413;-51
2024/01/21 07:53:44;;;;;;;15.98;8.40;;;;;;;;;;5085292;28;20402;-51
2024/01/21 07:56:10;;;;;;;13.32;7.55;;;;;;;;;;5090136;28;20736;-54
2024/01/21 07:58:36;;;;;;;14.77;7.45;;;;;;;;;;5090099;28;20370;-54
2024/01/21 08:01:02;;;;;;;12.45;7.30;;;;;;;;;;5087801;28;20409;-54
2024/01/21 08:03:28;;;;;;;14.60;7.73;;;;;;;;;;5086526;28;20429;-50
2024/01/21 08:05:55;;;;;;;11.02;6.65;;;;;;;;;;5084428;28;20405;-53
2024/01/21 08:08:21;;;;;;;12.60;6.55;;;;;;;;;;5085237;28;20402;-50
2024/01/21 08:10:47;;;;;;;12.45;6.80;;;;;;;;;;5088966;28;20462;-51
2024/01/21 08:13:13;;;;;;;11.23;6.03;;;;;;;;;;5084841;28;20885;-53
2024/01/21 08:15:39;;;;;;;13.60;6.55;;;;;;;;;;5085391;28;20746;-51
2024/01/21 08:18:05;;;;;;;11.52;7.10;;;;;;;;;;5081987;28;20394;-51
2024/01/21 08:20:31;;;;;;;12.38;6.85;;;;;;;;;;5084517;28;20384;-52
2024/01/21 08:22:57;;;;;;;14.07;6.97;;;;;;;;;;5084967;28;20461;-50
2024/01/21 08:25:23;;;;;;;11.35;6.38;;;;;;;;;;5086409;28;20473;-54
2024/01/21 08:27:49;;;;;;;10.13;6.13;;;;;;;;;;5090037;28;20393;-55
2024/01/21 08:30:15;;;;;;;11.63;7.03;;;;;;;;;;5087064;28;20420;-55
2024/01/21 08:32:41;;;;;;;10.10;5.70;;;;;;;;;;5089187;28;20402;-54
2024/01/21 08:35:07;;;;;;;11.52;6.20;;;;;;;;;;5086538;28;20462;-54
2024/01/21 08:37:33;;;;;;;9.88;5.60;;;;;;;;;;5086055;28;20378;-55
2024/01/21 08:39:59;;;;;;;9.95;5.32;;;;;;;;;;5088726;28;20406;-55
2024/01/21 08:42:26;;;;;;;14.90;7.07;;;;;;;;;;5080200;28;20453;-55
2024/01/21 08:44:52;;;;;;;10.38;5.80;;;;;;;;;;5087267;28;20493;-53
2024/01/21 08:47:18;;;;;;;9.25;5.30;;;;;;;;;;5079321;28;20452;-51
2024/01/21 08:49:44;;;;;;;12.63;6.05;;;;;;;;;;5084086;28;20378;-50
2024/01/21 08:52:10;;;;;;;8.68;4.43;;;;;;;;;;5088920;28;20408;-48
2024/01/21 08:54:36;;;;;;;8.48;4.80;;;;;;;;;;5087908;28;20793;-51
2024/01/21 08:57:02;;;;;;;10.20;4.97;;;;;;;;;;5088257;28;20377;-49
2024/01/21 08:59:29;;;;;;;7.53;4.30;;;;;;;;;;5082016;28;20372;-50
2024/01/21 09:01:55;;;;;;;6.83;3.63;;;;;;;;;;5086923;28;20406;-53
2024/01/21 09:04:21;;;;;;;8.87;3.70;;;;;;;;;;5089763;28;20382;-51
2024/01/21 09:06:47;;;;;;;5.73;3.87;;;;;;;;;;5089521;28;20382;-50
2024/01/21 09:09:13;;;;;;;6.33;3.53;;;;;;;;;;5083268;28;20404;-51
2024/01/21 09:11:40;;;;;;;7.07;3.50;;;;;;;;;;5089630;28;20464;-51
2024/01/21 09:14:06;;;;;;;6.63;3.58;;;;;;;;;;5083426;28;20807;-50
2024/01/21 09:16:33;;;;;;;5.93;3.15;;;;;;;;;;5086350;28;20402;-54
2024/01/21 09:18:59;;;;;;;4.82;2.83;;;;;;;;;;5081407;28;20403;-55
2024/01/21 09:21:25;;;;;;;4.88;2.60;;;;;;;;;;5089985;28;20789;-51
2024/01/21 09:23:52;;;;;;;4.72;2.65;;;;;;;;;;5084604;28;20436;-50
2024/01/21 09:26:18;;;;;;;4.28;2.65;;;;;;;;;;5085050;28;21309;-50
2024/01/21 09:28:44;;;;;;;4.68;2.60;;;;;;;;;;5087068;28;20389;-51
2024/01/21 09:31:10;;;;;;;4.75;2.55;;;;;;;;;;5087801;28;20439;-50
2024/01/21 09:33:36;;;;;;;4.83;2.73;;;;;;;;;;5087709;28;20786;-51
2024/01/21 09:36:02;;;;;;;4.28;2.70;;;;;;;;;;5079828;28;20404;-53
2024/01/21 09:38:28;;;;;;;5.38;3.03;;;;;;;;;;5085802;28;20412;-52
2024/01/21 09:41:02;;;;;;;5.22;2.50;;;;;;;;;;5084687;28;21096;-54
2024/01/21 09:43:28;;;;;;;5.75;2.17;;;;;;;;;;5082512;28;20493;-52
2024/01/21 09:45:55;;;;;;;5.40;2.75;;;;;;;;;;5086045;28;20398;-50
2024/01/21 09:48:21;;;;;;;4.68;2.60;;;;;;;;;;5086166;28;20394;-50
2024/01/21 09:50:47;;;;;;;4.88;2.25;;;;;;;;;;5087100;28;20414;-49
2024/01/21 09:53:13;;;;;;;3.20;2.40;;;;;;;;;;5087826;28;20388;-51
2024/01/21 09:55:39;;;;;;;3.20;1.90;;;;;;;;;;5084846;28;20820;-56
2024/01/21 09:58:07;;;;;;;3.72;2.17;;;;;;;;;;5087145;28;20519;-57
2024/01/21 10:00:33;;;;;;;5.18;2.70;;;;;;;;;;5089594;28;20422;-58
2024/01/21 10:02:59;;;;;;;3.38;2.03;;;;;;;;;;5086536;28;20773;-58
2024/01/21 10:05:25;;;;;;;4.82;2.30;;;;;;;;;;5081369;28;20383;-57
2024/01/21 10:07:51;;;;;;;3.65;2.20;;;;;;;;;;5084525;28;20386;-58
2024/01/21 10:10:18;;;;;;;5.57;2.38;;;;;;;;;;5089150;28;20441;-57
2024/01/21 10:12:44;;;;;;;4.97;2.47;;;;;;;;;;5085049;28;20418;-57
2024/01/21 10:15:13;;;;;;;20.05;10.55;;;;;;;;;;5082476;28;20411;-56
2024/01/21 10:17:39;;;;;;;12.30;6.15;;;;;;;;;;5080925;28;20419;-58
2024/01/21 10:20:09;;;;;;;3.55;2.10;;;;;;;;;;5091537;28;20482;-57
2024/01/21 10:22:36;;;;;;;17.45;11.80;;;;;;;;;;5092481;28;20883;-56
2024/01/21 10:25:03;;;;;;;3.67;1.93;;;;;;;;;;5091346;28;20389;-57
2024/01/21 10:27:29;;;;;;;4.32;2.15;;;;;;;;;;5090332;28;20486;-57
2024/01/21 10:30:00;;;;;;;4.82;2.17;;;;;;;;;;5086903;28;20430;-57
2024/01/21 10:32:27;;;;;;;4.50;2.58;;;;;;;;;;5092710;28;20383;-58
2024/01/21 10:34:53;;;;;;;4.00;2.15;;;;;;;;;;5086504;28;20392;-57
2024/01/21 10:37:19;;;;;;;4.30;2.38;;;;;;;;;;5084808;28;20725;-58
2024/01/21 10:39:46;;;;;;;3.97;1.85;;;;;;;;;;5086176;28;20360;-56
2024/01/21 10:42:13;;;;;;;4.43;2.28;;;;;;;;;;5086616;28;20398;-56
2024/01/21 10:44:40;;;;;;;3.23;2.00;;;;;;;;;;5078057;28;20521;-58
2024/01/21 10:47:08;;;;;;;3.92;2.10;;;;;;;;;;5090874;28;20392;-56
2024/01/21 10:49:35;;;;;;;6.13;3.20;;;;;;;;;;5090373;28;20433;-58
2024/01/21 10:52:01;;;;;;;5.95;2.58;;;;;;;;;;5089600;28;20418;-56
2024/01/21 10:54:27;;;;;;;4.55;2.58;;;;;;;;;;5085965;28;20484;-58
2024/01/21 10:56:54;;;;;;;4.20;2.70;;;;;;;;;;5090119;28;20381;-56
2024/01/21 10:59:21;;;;;;;4.43;2.30;;;;;;;;;;5087605;28;20811;-58
2024/01/21 11:01:47;;;;;;;6.05;2.72;;;;;;;;;;5085388;28;20382;-56
2024/01/21 11:04:13;;;;;;;4.40;2.60;;;;;;;;;;5088833;28;20405;-55
2024/01/21 11:06:48;;;;;;;4.30;2.50;;;;;;;;;;5080870;28;20457;-55
2024/01/21 11:09:16;;;;;;;3.85;1.98;;;;;;;;;;5090719;28;20392;-55
2024/01/21 11:11:42;;;;;;;3.67;2.10;;;;;;;;;;5088966;28;20752;-55
2024/01/21 11:14:28;;;;;;;3.72;2.22;;;;;;;;;;5090892;28;20398;-53
2024/01/21 11:16:54;;;;;;;3.45;2.20;;;;;;;;;;5086712;28;20383;-51
2024/01/21 11:19:23;;;;;;;2.88;1.95;;;;;;;;;;5085062;28;20389;-54
2024/01/21 11:21:54;;;;;;;3.77;1.97;;;;;;;;;;5091298;28;20374;-54
2024/01/21 11:24:20;;;;;;;3.00;1.77;;;;;;;;;;5083877;28;20459;-55
2024/01/21 11:26:47;;;;;;;2.88;1.98;;;;;;;;;;5085947;28;20895;-55
2024/01/21 11:29:26;;;;;;;4.72;1.70;;;;;;;;;;5074312;28;20457;-55
2024/01/21 11:31:53;;;;;;;5.97;2.23;;;;;;;;;;5087546;28;20944;-55
2024/01/21 11:34:21;;;;;;;4.95;1.90;;;;;;;;;;5089868;28;20424;-52
2024/01/21 11:36:47;;;;;;;4.47;2.28;;;;;;;;;;5088026;28;20381;-52
2024/01/21 11:39:13;;;;;;;4.32;2.10;;;;;;;;;;5088052;28;20410;-54
2024/01/21 11:41:43;;;;;;;4.22;1.90;;;;;;;;;;5091193;28;20473;-55
2024/01/21 11:44:18;;;;;;;3.25;1.80;;;;;;;;;;5087064;28;20835;-55
2024/01/21 11:46:44;;;;;;;4.07;2.00;;;;;;;;;;5090404;28;20406;-53
2024/01/21 11:49:10;;;;;;;3.97;2.30;;;;;;;;;;5084574;28;20394;-54
2024/01/21 11:51:37;;;;;;;4.10;2.05;;;;;;;;;;5089081;28;20414;-52
2024/01/21 11:54:03;;;;;;;4.00;2.10;;;;;;;;;;5088362;28;20394;-54
2024/01/21 11:56:29;;;;;;;3.60;1.98;;;;;;;;;;5091293;28;20445;-52
2024/01/21 11:58:57;;;;;;;3.58;2.20;;;;;;;;;;5081868;28;20382;-51
2024/01/21 12:01:23;;;;;;;4.90;2.15;;;;;;;;;;5091264;28;20435;-51
2024/01/21 12:03:49;;;;;;;4.55;2.13;;;;;;;;;;5086142;28;20417;-50
2024/01/21 12:06:16;;;;;;;4.88;2.13;;;;;;;;;;5084417;28;20397;-50
2024/01/21 12:08:44;;;;;;;4.28;2.25;;;;;;;;;;5072198;28;20930;-52
2024/01/21 12:11:10;;;;;;;3.50;2.17;;;;;;;;;;5089108;28;20785;-51
2024/01/21 12:13:39;;;;;;;3.95;2.30;;;;;;;;;;5089366;28;20424;-50
2024/01/21 12:16:05;;;;;;;6.00;2.95;;;;;;;;;;5087194;28;20421;-54
2024/01/21 12:18:31;;;;;;;5.72;2.72;;;;;;;;;;5078364;28;20570;-52
2024/01/21 12:20:57;;;;;;;3.72;2.20;;;;;;;;;;5087786;28;20920;-53
2024/01/21 12:23:24;;;;;;;3.88;2.38;;;;;;;;;;5088807;28;20406;-55
2024/01/21 12:25:50;;;;;;;3.97;2.35;;;;;;;;;;5080816;28;20478;-53
2024/01/21 12:28:17;;;;;;;5.07;2.63;;;;;;;;;;5076997;28;20467;-55
2024/01/21 12:30:43;;;;;;;5.78;2.10;;;;;;;;;;5080875;28;20770;-55
2024/01/21 12:33:09;;;;;;;4.60;2.38;;;;;;;;;;5080512;28;20402;-55
2024/01/21 12:35:36;;;;;;;4.15;2.30;;;;;;;;;;5083000;28;20825;-51
2024/01/21 12:38:02;;;;;;;3.17;2.10;;;;;;;;;;5088260;28;20417;-54
2024/01/21 12:40:28;;;;;;;4.50;2.30;;;;;;;;;;5087746;28;20382;-52
2024/01/21 12:42:54;;;;;;;4.07;2.23;;;;;;;;;;5088629;28;20851;-53
2024/01/21 12:45:20;;;;;;;4.67;2.20;;;;;;;;;;5089138;28;20409;-54
2024/01/21 12:47:46;;;;;;;3.30;2.20;;;;;;;;;;5087671;28;20405;-53
2024/01/21 12:50:12;;;;;;;4.40;2.20;;;;;;;;;;5089051;28;20398;-53
2024/01/21 12:52:39;;;;;;;3.53;2.20;;;;;;;;;;5087392;28;20870;-52
2024/01/21 12:55:06;;;;;;;5.75;2.63;;;;;;;;;;5086753;28;20378;-55
2024/01/21 12:57:32;;;;;;;4.20;2.50;;;;;;;;;;5086446;28;20396;-55
2024/01/21 12:59:58;;;;;;;4.78;2.60;;;;;;;;;;5087853;28;20393;-54
2024/01/21 13:02:24;;;;;;;3.95;2.30;;;;;;;;;;5088014;28;20445;-55
2024/01/21 13:04:51;;;;;;;4.28;2.58;;;;;;;;;;5087928;28;20406;-57
2024/01/21 13:07:17;;;;;;;5.10;2.33;;;;;;;;;;5087872;28;20409;-58
2024/01/21 13:09:43;;;;;;;4.93;2.50;;;;;;;;;;5089366;28;20408;-56
2024/01/21 13:12:09;;;;;;;4.75;2.58;;;;;;;;;;5087569;28;20406;-57
2024/01/21 13:14:35;;;;;;;4.57;2.38;;;;;;;;;;5080446;28;20422;-57
2024/01/21 13:17:01;;;;;;;5.13;2.47;;;;;;;;;;5087978;28;20793;-57
2024/01/21 13:19:27;;;;;;;4.93;2.60;;;;;;;;;;5088695;28;20837;-57
2024/01/21 13:21:53;;;;;;;5.75;2.65;;;;;;;;;;5087709;28;20477;-56
2024/01/21 13:24:20;;;;;;;6.32;2.60;;;;;;;;;;5085035;28;20847;-57
2024/01/21 13:26:52;;;;;;;5.80;2.60;;;;;;;;;;5087921;28;20417;-54
2024/01/21 13:32:07;;;;;;;5.18;2.58;;;;;;;;;;5086601;28;20930;-53
2024/01/21 13:34:33;;;;;;;5.75;2.72;;;;;;;;;;5086266;28;20489;-54
2024/01/21 13:36:59;;;;;;;3.75;2.60;;;;;;;;;;5088810;28;20813;-53
2024/01/21 13:39:25;;;;;;;4.85;2.47;;;;;;;;;;5089210;28;20392;-53
2024/01/21 13:41:52;;;;;;;4.97;2.90;;;;;;;;;;5084737;28;20760;-55
2024/01/21 13:44:18;;;;;;;5.67;2.77;;;;;;;;;;5088562;28;20430;-54
2024/01/21 13:46:44;;;;;;;4.50;2.67;;;;;;;;;;5088858;28;20378;-53
2024/01/21 13:49:10;;;;;;;4.40;2.42;;;;;;;;;;5088401;28;20472;-55
2024/01/21 13:51:36;;;;;;;3.63;2.22;;;;;;;;;;5084603;28;20409;-51
2024/01/21 13:54:02;;;;;;;4.53;2.70;;;;;;;;;;5089039;28;20419;-53
2024/01/21 13:56:28;;;;;;;5.93;2.45;;;;;;;;;;5091504;28;20393;-53
2024/01/21 13:58:54;;;;;;;6.25;2.20;;;;;;;;;;5091268;28;20374;-54
2024/01/21 14:01:20;;;;;;;3.60;2.30;;;;;;;;;;5088861;28;20420;-52
2024/01/21 14:03:46;;;;;;;5.87;2.43;;;;;;;;;;5074105;28;20390;-54
2024/01/21 14:06:12;;;;;;;4.40;2.40;;;;;;;;;;5091627;28;20408;-55
2024/01/21 14:08:38;;;;;;;4.05;2.50;;;;;;;;;;5086964;28;20398;-54
2024/01/21 14:11:04;;;;;;;4.03;2.10;;;;;;;;;;5089751;28;20410;-55
2024/01/21 14:13:30;;;;;;;5.40;2.47;;;;;;;;;;5089279;28;20453;-54
2024/01/21 14:15:56;;;;;;;3.90;2.33;;;;;;;;;;5092256;28;20374;-54
2024/01/21 14:18:22;;;;;;;4.15;2.20;;;;;;;;;;5090832;28;20858;-52
2024/01/21 14:20:48;;;;;;;4.15;2.05;;;;;;;;;;5086447;28;20398;-53
2024/01/21 14:23:14;;;;;;;3.47;2.25;;;;;;;;;;5085503;28;20886;-53
2024/01/21 14:25:43;;;;;;;3.78;2.33;;;;;;;;;;5088675;28;20401;-49
2024/01/21 14:28:09;;;;;;;4.25;2.20;;;;;;;;;;5088452;28;20428;-50
2024/01/21 14:30:36;;;;;;;4.18;2.47;;;;;;;;;;5089924;28;20906;-51